Time;durP1;ratioP1;P1;durP2;ratioP2;P2;SDS_P1;SDS_P2;PMS_P1;PMS_P2;Temp;Humidity;BMP_temperature;BMP_pressure;BME280_temperature;BME280_humidity;BME280_pressure;Samples;Min_cycle;Max_cycle;Signal;HPM_P1;HPM_P2
2023/10/17 01:10:50;;;;;;;2.35;1.42;;;;;;;5.47;82.78;99640.38;336369;28;20854;-78
2023/10/17 01:11:08;;;;;;;2.17;1.50;;;;;;;5.47;82.91;99641.22;336475;28;17627;-78
2023/10/17 01:11:28;;;;;;;2.17;1.50;;;;;;;5.42;82.89;99643.03;335327;28;17370;-78
2023/10/17 01:11:40;;;;;;;1.98;1.30;;;;;;;5.40;83.17;99642.19;336242;28;18188;-78
2023/10/17 01:11:54;;;;;;;2.67;1.27;;;;;;;5.37;83.00;99639.63;335992;28;19364;-78
2023/10/17 01:12:10;;;;;;;3.13;1.58;;;;;;;5.35;83.01;99647.41;336542;28;4550;-78
2023/10/17 01:12:27;;;;;;;2.03;1.40;;;;;;;5.35;83.11;99638.81;335371;28;18780;-78
2023/10/17 01:12:52;;;;;;;2.17;1.20;;;;;;;5.32;83.54;99641.44;335469;28;17612;-78
2023/10/17 01:13:05;;;;;;;2.10;1.58;;;;;;;5.30;83.52;99640.59;335737;28;17373;-78
2023/10/17 01:13:17;;;;;;;2.27;1.70;;;;;;;5.22;84.21;99640.69;336021;28;17841;-78
2023/10/17 01:13:29;;;;;;;2.72;1.42;;;;;;;5.25;84.13;99639.78;338705;28;4671;-78
2023/10/17 01:13:41;;;;;;;2.40;1.27;;;;;;;5.25;83.91;99644.94;336334;28;13136;-78
2023/10/17 01:13:54;;;;;;;2.25;1.20;;;;;;;5.27;84.03;99638.03;340400;28;4493;-78
2023/10/17 01:14:06;;;;;;;2.15;1.50;;;;;;;5.26;83.54;99641.50;337908;28;4680;-78
2023/10/17 01:14:18;;;;;;;7.75;1.52;;;;;;;5.29;83.49;99636.28;337587;28;14530;-78
2023/10/17 01:14:32;;;;;;;7.50;1.38;;;;;;;5.30;83.35;99643.19;340093;28;4523;-78
2023/10/17 01:14:44;;;;;;;2.08;1.20;;;;;;;5.32;83.54;99641.44;336039;28;16334;-78
2023/10/17 01:14:56;;;;;;;2.35;1.30;;;;;;;5.32;83.36;99637.13;339013;28;4798;-78
2023/10/17 01:15:22;;;;;;;2.50;1.35;;;;;;;5.30;83.83;99630.28;336037;28;18751;-78
2023/10/17 01:15:37;;;;;;;3.78;1.48;;;;;;;5.33;83.91;99643.13;336118;28;17465;-78
2023/10/17 01:15:52;;;;;;;3.60;1.40;;;;;;;5.35;83.12;99643.97;335866;28;18094;-78
2023/10/17 01:16:12;;;;;;;2.30;1.25;;;;;;;5.33;83.75;99637.97;332850;28;18042;-78
2023/10/17 01:16:25;;;;;;;2.80;1.30;;;;;;;5.33;83.35;99643.13;337151;28;17473;-78
2023/10/17 01:16:39;;;;;;;2.65;1.50;;;;;;;5.31;83.87;99642.28;336425;28;17870;-78
2023/10/17 01:16:51;;;;;;;2.47;1.50;;;;;;;5.33;83.67;99640.53;337873;28;5486;-78
2023/10/17 01:17:05;;;;;;;2.15;1.33;;;;;;;5.34;83.36;99637.13;337603;28;18151;-78
2023/10/17 01:17:23;;;;;;;2.67;1.40;;;;;;;5.34;83.75;99640.53;336746;28;18073;-78
2023/10/17 01:17:35;;;;;;;3.35;1.35;;;;;;;5.32;83.25;99636.28;335263;28;18644;-78
2023/10/17 01:17:48;;;;;;;3.25;1.48;;;;;;;5.34;83.29;99639.69;337468;28;18378;-78
2023/10/17 01:18:06;;;;;;;2.65;1.48;;;;;;;5.31;83.74;99640.59;337650;28;5334;-78
2023/10/17 01:18:18;;;;;;;2.25;1.33;;;;;;;5.33;83.40;99637.97;334199;28;18023;-78
2023/10/17 01:18:31;;;;;;;2.10;1.20;;;;;;;5.33;83.40;99637.97;335210;28;18168;-78
2023/10/17 01:18:46;;;;;;;2.85;1.40;;;;;;;5.36;82.87;99641.38;335007;28;17951;-78
2023/10/17 01:19:04;;;;;;;2.67;1.42;;;;;;;5.36;83.19;99637.94;336353;28;16011;-78
2023/10/17 01:19:19;;;;;;;2.05;1.17;;;;;;;5.32;83.33;99638.84;332866;28;18492;-78
2023/10/17 01:19:35;;;;;;;2.05;1.30;;;;;;;5.31;83.30;99634.56;336239;28;18463;-78
2023/10/17 01:19:49;;;;;;;2.08;1.38;;;;;;;5.32;83.62;99641.44;335864;28;17715;-78
2023/10/17 01:20:08;;;;;;;2.92;1.42;;;;;;;5.34;83.71;99634.53;336078;28;18916;-78
2023/10/17 01:20:21;;;;;;;3.10;1.58;;;;;;;5.33;83.21;99636.28;334991;28;18769;-78
2023/10/17 01:20:35;;;;;;;2.28;1.33;;;;;;;5.33;83.35;99637.97;336160;28;16152;-78
2023/10/17 01:20:47;;;;;;;1.83;1.10;;;;;;;5.34;83.92;99639.69;337472;28;13520;-78
2023/10/17 01:21:00;;;;;;;2.20;1.27;;;;;;;5.36;83.40;99637.94;337881;28;4484;-78
2023/10/17 01:21:19;;;;;;;2.20;1.38;;;;;;;5.37;83.55;99634.47;337236;28;4638;-78
2023/10/17 01:21:31;;;;;;;3.67;1.60;;;;;;;5.38;83.11;99633.63;334720;28;17314;-78
2023/10/17 01:21:43;;;;;;;3.50;1.58;;;;;;;5.38;82.96;99636.22;337632;28;5566;-78
2023/10/17 01:21:56;;;;;;;1.75;1.30;;;;;;;5.40;82.68;99634.47;330470;28;18397;-78
2023/10/17 01:22:08;;;;;;;1.73;1.30;;;;;;;5.38;82.82;99636.22;337385;28;5507;-78
2023/10/17 01:22:20;;;;;;;1.88;1.25;;;;;;;5.39;83.04;99638.78;333695;28;15022;-78
2023/10/17 01:22:32;;;;;;;1.80;1.20;;;;;;;5.36;83.15;99632.78;337207;28;4728;-78
2023/10/17 01:22:45;;;;;;;1.73;1.20;;;;;;;5.36;82.87;99637.94;334733;28;17554;-78
2023/10/17 01:23:00;;;;;;;2.15;1.38;;;;;;;5.36;82.74;99637.94;336831;28;4944;-78
2023/10/17 01:23:12;;;;;;;1.80;1.27;;;;;;;5.38;83.17;99638.78;335992;28;17792;-78
2023/10/17 01:23:24;;;;;;;2.28;1.48;;;;;;;5.37;82.62;99637.94;335909;28;16171;-78
2023/10/17 01:23:36;;;;;;;2.45;1.63;;;;;;;5.36;82.59;99632.78;339795;28;4675;-78
2023/10/17 01:23:49;;;;;;;2.45;1.58;;;;;;;5.36;82.76;99636.22;340208;28;4721;-78
2023/10/17 01:24:03;;;;;;;2.03;1.20;;;;;;;5.36;82.89;99637.94;336075;28;17916;-78
2023/10/17 01:24:16;;;;;;;2.15;1.20;;;;;;;5.36;83.01;99641.38;336998;28;17908;-78
2023/10/17 01:24:28;;;;;;;1.88;1.20;;;;;;;5.37;83.05;99637.06;339973;28;6117;-78
2023/10/17 01:24:41;;;;;;;3.03;1.20;;;;;;;5.35;82.83;99637.09;336860;28;18056;-78
2023/10/17 01:24:56;;;;;;;2.80;1.20;;;;;;;5.34;82.89;99640.53;336871;28;12876;-78
2023/10/17 01:25:19;;;;;;;2.10;1.50;;;;;;;5.34;83.31;99642.25;339295;28;4623;-78
2023/10/17 01:25:35;;;;;;;6.57;1.73;;;;;;;5.34;83.28;99639.69;331340;28;16141;-78
2023/10/17 01:25:50;;;;;;;4.43;1.40;;;;;;;5.36;83.15;99636.22;335568;28;17705;-78
2023/10/17 01:26:08;;;;;;;2.90;1.20;;;;;;;5.37;83.07;99635.34;337291;28;18035;-78
2023/10/17 01:26:26;;;;;;;3.00;1.20;;;;;;;5.38;83.29;99643.94;335520;28;17098;-78
2023/10/17 01:26:38;;;;;;;1.98;1.17;;;;;;;5.35;83.07;99637.09;336058;28;17668;-78
2023/10/17 01:26:51;;;;;;;1.70;1.15;;;;;;;5.36;82.27;99643.09;333567;28;4653;-78
2023/10/17 01:27:06;;;;;;;2.22;1.15;;;;;;;5.35;83.38;99641.38;335258;28;17333;-78
2023/10/17 01:27:18;;;;;;;2.40;1.23;;;;;;;5.33;83.12;99643.13;335303;28;17673;-78
2023/10/17 01:27:31;;;;;;;2.38;1.38;;;;;;;5.33;83.13;99644.00;336821;28;5892;-78
2023/10/17 01:27:44;;;;;;;1.90;1.20;;;;;;;5.33;82.60;99638.84;340346;28;4897;-78
2023/10/17 01:27:57;;;;;;;1.98;1.23;;;;;;;5.30;82.66;99638.88;336178;28;18218;-78
2023/10/17 01:28:10;;;;;;;1.85;1.20;;;;;;;5.32;82.56;99638.84;338946;28;11351;-78
2023/10/17 01:28:22;;;;;;;2.00;1.20;;;;;;;5.32;83.15;99637.13;337300;28;18057;-78
2023/10/17 01:28:35;;;;;;;2.35;1.30;;;;;;;5.31;82.76;99639.72;334176;28;4657;-78
2023/10/17 01:28:49;;;;;;;2.50;1.27;;;;;;;5.33;83.23;99638.84;334283;28;16758;-78
2023/10/17 01:29:02;;;;;;;2.47;1.30;;;;;;;5.33;82.57;99637.97;334468;28;13464;-78
2023/10/17 01:29:14;;;;;;;2.55;1.40;;;;;;;5.33;83.03;99637.97;338804;28;5240;-78
2023/10/17 01:29:26;;;;;;;2.45;1.45;;;;;;;5.32;82.54;99638.84;335041;28;14261;-78
2023/10/17 01:29:43;;;;;;;2.45;1.45;;;;;;;5.32;83.01;99637.13;337246;28;4634;-78
2023/10/17 01:29:55;;;;;;;1.70;1.20;;;;;;;5.28;83.36;99637.19;328355;28;18121;-78
2023/10/17 01:30:08;;;;;;;1.70;1.15;;;;;;;5.26;82.89;99636.34;334610;28;18477;-78
2023/10/17 01:30:21;;;;;;;3.72;1.25;;;;;;;5.25;82.94;99642.34;337848;28;5013;-78
2023/10/17 01:30:33;;;;;;;3.55;1.13;;;;;;;5.25;83.35;99644.94;334062;28;17763;-78
2023/10/17 01:30:45;;;;;;;1.92;1.17;;;;;;;5.28;82.75;99645.75;338981;28;4568;-78
2023/10/17 01:31:01;;;;;;;3.15;1.25;;;;;;;5.28;83.14;99640.59;335426;28;18081;-78
2023/10/17 01:31:14;;;;;;;3.15;1.30;;;;;;;5.26;82.69;99642.34;336261;28;17867;-78
2023/10/17 01:31:26;;;;;;;2.17;1.30;;;;;;;5.29;83.18;99644.03;333604;28;4858;-78
2023/10/17 01:31:42;;;;;;;1.85;1.23;;;;;;;5.30;82.75;99645.75;336089;28;18058;-78
2023/10/17 01:31:55;;;;;;;1.98;1.35;;;;;;;5.31;83.39;99644.88;335543;28;17845;-78
2023/10/17 01:32:09;;;;;;;1.95;1.27;;;;;;;5.30;82.35;99645.75;335588;28;18108;-78
2023/10/17 01:32:23;;;;;;;2.22;1.40;;;;;;;5.29;82.52;99641.44;336705;28;9335;-78
2023/10/17 01:32:35;;;;;;;3.58;1.70;;;;;;;5.30;83.22;99640.59;336621;28;16858;-78
2023/10/17 01:32:49;;;;;;;3.42;1.63;;;;;;;5.30;82.95;99649.19;332709;28;18119;-78
2023/10/17 01:33:01;;;;;;;3.00;1.38;;;;;;;5.32;82.39;99646.59;338699;28;4727;-78
2023/10/17 01:33:14;;;;;;;3.72;1.40;;;;;;;5.32;82.07;99649.16;336507;28;18873;-78
2023/10/17 01:33:29;;;;;;;3.75;1.48;;;;;;;5.30;82.43;99649.19;339152;28;4518;-78
2023/10/17 01:33:43;;;;;;;4.35;1.70;;;;;;;5.26;nan;99644.09;340698;28;17753;-78
2023/10/17 01:33:55;;;;;;;4.20;1.58;;;;;;;5.25;83.33;99644.94;330844;28;17053;-78
2023/10/17 01:34:08;;;;;;;3.40;1.42;;;;;;;5.23;83.63;99647.53;336452;28;18063;-78
2023/10/17 01:34:21;;;;;;;1.85;1.23;;;;;;;5.18;83.04;99649.31;334566;28;4682;-78
2023/10/17 01:34:33;;;;;;;2.38;1.40;;;;;;;5.18;83.25;99649.31;335989;28;13137;-78
2023/10/17 01:34:47;;;;;;;2.25;1.27;;;;;;;5.19;83.44;99641.56;340158;28;5160;-78
2023/10/17 01:34:59;;;;;;;2.00;1.20;;;;;;;5.20;83.67;99653.56;335093;28;17976;-78
2023/10/17 01:35:11;;;;;;;2.00;1.27;;;;;;;5.19;82.95;99659.59;338292;28;5621;-78
2023/10/17 01:35:24;;;;;;;2.60;1.50;;;;;;;5.18;83.55;99655.31;335867;28;18172;-78
2023/10/17 01:35:36;;;;;;;3.22;1.55;;;;;;;5.18;83.37;99652.72;338607;28;4772;-78
2023/10/17 01:35:48;;;;;;;3.53;1.55;;;;;;;5.18;83.96;99650.16;334639;28;5453;-78
2023/10/17 01:36:05;;;;;;;2.30;1.17;;;;;;;5.19;84.03;99654.47;338614;28;4663;-78
2023/10/17 01:36:19;;;;;;;1.92;1.20;;;;;;;5.22;83.46;99650.13;336915;28;17402;-78
2023/10/17 01:36:31;;;;;;;2.28;1.55;;;;;;;5.23;83.06;99657.00;336490;28;17949;-78
2023/10/17 01:36:43;;;;;;;2.22;1.50;;;;;;;5.24;83.58;99653.56;337356;28;18616;-78
2023/10/17 01:36:57;;;;;;;2.22;1.50;;;;;;;5.26;83.72;99656.97;340010;28;5234;-78
2023/10/17 01:37:10;;;;;;;1.92;1.20;;;;;;;5.26;82.94;99652.66;336271;28;17669;-78
2023/10/17 01:37:22;;;;;;;1.92;1.30;;;;;;;5.27;82.68;99648.34;334632;28;5154;-78
2023/10/17 01:37:36;;;;;;;2.67;1.45;;;;;;;5.27;83.67;99650.94;335942;28;18048;-78
2023/10/17 01:37:48;;;;;;;2.50;1.25;;;;;;;5.28;83.52;99652.66;339248;28;4657;-78
2023/10/17 01:38:00;;;;;;;2.03;1.23;;;;;;;5.29;82.79;99656.91;336014;28;18177;-78
2023/10/17 01:38:13;;;;;;;1.70;1.35;;;;;;;5.29;82.93;99647.47;338702;28;4553;-78
2023/10/17 01:38:28;;;;;;;1.65;1.25;;;;;;;5.28;82.90;99647.50;332756;28;17940;-78
2023/10/17 01:38:42;;;;;;;1.88;1.17;;;;;;;5.24;83.65;99643.25;331372;28;18220;-78
2023/10/17 01:38:54;;;;;;;2.53;1.40;;;;;;;5.22;83.92;99650.13;335677;28;15036;-78
2023/10/17 01:39:08;;;;;;;2.28;1.45;;;;;;;5.22;83.50;99650.13;337471;28;4783;-78
2023/10/17 01:39:20;;;;;;;2.15;1.33;;;;;;;5.24;84.13;99643.25;337155;28;18620;-78
2023/10/17 01:39:33;;;;;;;2.20;1.20;;;;;;;5.25;84.03;99650.09;340144;28;4500;-78
2023/10/17 01:39:45;;;;;;;2.55;1.35;;;;;;;5.26;83.43;99644.09;336355;28;17781;-78
2023/10/17 01:39:57;;;;;;;1.80;1.35;;;;;;;5.26;83.07;99651.81;338953;28;4721;-78
2023/10/17 01:40:18;;;;;;;3.30;1.50;;;;;;;5.18;83.66;99645.00;336875;28;17984;-78
2023/10/17 01:40:30;;;;;;;3.95;1.50;;;;;;;5.19;83.53;99651.00;336583;28;17279;-78
2023/10/17 01:40:43;;;;;;;3.80;1.65;;;;;;;5.18;83.96;99642.44;339799;28;4573;-78
2023/10/17 01:41:01;;;;;;;3.92;1.70;;;;;;;5.19;83.94;99644.16;337163;28;18253;-78
2023/10/17 01:41:13;;;;;;;3.03;1.50;;;;;;;5.23;83.79;99646.69;337070;28;17709;-78
2023/10/17 01:41:25;;;;;;;2.40;1.40;;;;;;;5.25;83.82;99642.34;336098;28;16698;-78
2023/10/17 01:41:46;;;;;;;2.35;1.50;;;;;;;5.25;83.87;99639.78;334218;28;4699;-78
2023/10/17 01:41:59;;;;;;;2.85;1.50;;;;;;;5.26;84.06;99641.50;336502;28;18071;-78
2023/10/17 01:42:12;;;;;;;3.05;1.38;;;;;;;5.27;83.28;99643.19;335778;28;17841;-78
2023/10/17 01:42:24;;;;;;;3.22;1.48;;;;;;;5.29;83.44;99636.28;337774;28;4668;-78
2023/10/17 01:42:38;;;;;;;3.33;1.83;;;;;;;5.27;83.35;99635.47;336126;28;18825;-78
2023/10/17 01:42:51;;;;;;;5.13;1.67;;;;;;;5.29;82.70;99642.34;335772;28;7422;-78
2023/10/17 01:43:03;;;;;;;6.18;1.35;;;;;;;5.29;82.81;99633.72;337025;28;17223;-78
2023/10/17 01:43:15;;;;;;;4.53;1.17;;;;;;;5.28;83.26;99639.75;329554;28;18406;-78
2023/10/17 01:43:35;;;;;;;2.58;1.10;;;;;;;5.29;83.15;99639.75;338139;28;5219;-78
2023/10/17 01:43:49;;;;;;;1.75;1.20;;;;;;;5.29;83.42;99641.44;331507;28;17874;-78
2023/10/17 01:44:04;;;;;;;2.40;1.50;;;;;;;5.28;82.79;99640.59;335641;28;17952;-78
2023/10/17 01:44:16;;;;;;;3.33;1.85;;;;;;;5.27;83.35;99644.06;335873;28;18649;-78
2023/10/17 01:44:29;;;;;;;3.33;1.90;;;;;;;5.26;83.40;99641.50;339826;28;5815;-78
2023/10/17 01:44:41;;;;;;;2.55;1.70;;;;;;;5.26;83.48;99636.34;336109;28;17942;-78
2023/10/17 01:44:53;;;;;;;2.25;1.38;;;;;;;5.24;83.07;99636.34;339993;28;5415;-78
2023/10/17 01:45:10;;;;;;;1.98;1.25;;;;;;;5.24;83.00;99644.09;336825;28;18265;-78
2023/10/17 01:45:25;;;;;;;2.05;1.30;;;;;;;5.25;83.36;99642.34;337034;28;16165;-78
2023/10/17 01:45:37;;;;;;;2.72;1.42;;;;;;;5.24;83.22;99643.25;336108;28;17959;-78
2023/10/17 01:45:50;;;;;;;2.40;1.30;;;;;;;5.22;83.79;99642.41;334082;28;5364;-78
2023/10/17 01:46:05;;;;;;;1.85;1.27;;;;;;;5.25;83.16;99645.81;336177;28;18241;-78
2023/10/17 01:46:23;;;;;;;2.47;1.40;;;;;;;5.21;82.78;99646.69;333692;28;17664;-78
2023/10/17 01:46:38;;;;;;;4.05;1.20;;;;;;;5.20;83.37;99643.25;333996;28;17658;-78
2023/10/17 01:46:50;;;;;;;3.58;1.52;;;;;;;5.19;83.30;99641.56;337588;28;4706;-77
2023/10/17 01:47:07;;;;;;;3.40;1.60;;;;;;;5.19;82.87;99641.56;335253;28;17985;-78
2023/10/17 01:47:19;;;;;;;3.15;1.58;;;;;;;5.19;84.02;99638.13;334993;28;17823;-78
2023/10/17 01:47:31;;;;;;;3.05;1.40;;;;;;;5.18;83.37;99642.44;335552;28;5765;-78
2023/10/17 01:47:43;;;;;;;2.83;1.33;;;;;;;5.20;83.65;99638.09;337103;28;4757;-78
2023/10/17 01:47:56;;;;;;;2.28;1.20;;;;;;;5.23;82.91;99639.78;336889;28;4711;-78
2023/10/17 01:48:11;;;;;;;2.45;1.30;;;;;;;5.23;83.17;99642.38;338514;28;4603;-78
2023/10/17 01:48:23;;;;;;;2.10;1.10;;;;;;;5.22;83.41;99639.84;337088;28;17969;-78
2023/10/17 01:48:36;;;;;;;2.60;1.20;;;;;;;5.23;82.91;99636.38;335660;28;5607;-78
2023/10/17 01:48:49;;;;;;;3.45;1.40;;;;;;;5.24;83.52;99638.94;337605;28;4984;-78
2023/10/17 01:49:10;;;;;;;3.53;1.70;;;;;;;5.24;83.50;99638.09;335751;28;17885;-78
2023/10/17 01:49:22;;;;;;;3.13;1.65;;;;;;;5.26;82.93;99636.34;334411;28;18110;-78
2023/10/17 01:49:34;;;;;;;2.67;1.30;;;;;;;5.28;82.85;99639.75;336638;28;4752;-78
2023/10/17 01:49:46;;;;;;;2.92;1.40;;;;;;;5.29;83.30;99636.28;336311;28;16379;-78
2023/10/17 01:49:58;;;;;;;2.45;1.23;;;;;;;5.29;83.47;99636.28;333193;28;16876;-78
2023/10/17 01:50:11;;;;;;;2.08;1.17;;;;;;;5.30;82.97;99638.03;332903;28;5870;-78
2023/10/17 01:50:26;;;;;;;1.15;1.00;;;;;;;5.30;82.84;99630.28;334293;28;4562;-78
2023/10/17 01:50:39;;;;;;;1.50;1.30;;;;;;;5.25;83.46;99634.63;333266;29;17955;-78
2023/10/17 01:50:53;;;;;;;1.63;1.40;;;;;;;5.25;83.56;99639.78;338182;28;5504;-78
2023/10/17 01:51:12;;;;;;;1.95;1.38;;;;;;;5.27;83.40;99640.63;336052;28;19412;-78
2023/10/17 01:51:24;;;;;;;2.17;1.35;;;;;;;5.27;83.46;99638.91;336399;28;14709;-78
2023/10/17 01:51:37;;;;;;;2.20;1.42;;;;;;;5.28;83.07;99642.34;339783;28;4683;-78
2023/10/17 01:51:49;;;;;;;2.13;1.35;;;;;;;5.26;83.26;99642.34;336952;28;17613;-78
2023/10/17 01:52:01;;;;;;;1.70;1.10;;;;;;;5.25;82.72;99639.78;340076;28;5034;-78
2023/10/17 01:52:13;;;;;;;1.38;0.90;;;;;;;5.25;83.28;99635.50;336721;28;18249;-78
2023/10/17 01:52:27;;;;;;;2.10;1.17;;;;;;;5.24;83.53;99638.09;339084;28;4816;-78
2023/10/17 01:52:42;;;;;;;3.10;1.40;;;;;;;5.23;82.93;99644.94;336220;28;18141;-78
2023/10/17 01:52:54;;;;;;;2.97;1.42;;;;;;;5.19;83.20;99636.41;336213;28;17855;-78
2023/10/17 01:53:12;;;;;;;2.45;1.40;;;;;;;5.22;83.43;99639.84;339772;28;4523;-78
2023/10/17 01:53:25;;;;;;;2.17;1.38;;;;;;;5.20;83.13;99637.25;336586;28;17470;-78
2023/10/17 01:53:38;;;;;;;2.10;1.40;;;;;;;5.20;83.27;99639.84;339945;28;5427;-78
2023/10/17 01:53:51;;;;;;;2.22;1.33;;;;;;;5.19;83.24;99639.00;336566;28;18676;-78
2023/10/17 01:54:08;;;;;;;2.45;1.13;;;;;;;5.19;83.38;99641.56;336875;28;18321;-78
2023/10/17 01:54:21;;;;;;;2.88;1.27;;;;;;;5.15;83.42;99642.47;337330;28;17981;-78
2023/10/17 01:54:36;;;;;;;2.30;1.20;;;;;;;5.16;83.20;99631.28;339700;28;4787;-78
2023/10/17 01:54:48;;;;;;;1.98;1.02;;;;;;;5.15;83.12;99639.91;337527;28;17843;-78
2023/10/17 01:55:00;;;;;;;2.30;1.20;;;;;;;5.16;83.56;99641.59;333589;28;16759;-78
2023/10/17 01:55:15;;;;;;;1.70;1.20;;;;;;;5.18;83.21;99639.00;338466;28;4559;-78
2023/10/17 01:55:27;;;;;;;1.75;1.15;;;;;;;5.15;83.15;99634.75;335426;28;18194;-78
2023/10/17 01:55:42;;;;;;;1.95;1.30;;;;;;;5.19;82.68;99635.53;334650;28;19240;-78
2023/10/17 01:56:06;;;;;;;2.80;1.33;;;;;;;5.20;83.10;99638.09;333592;28;17949;-78
2023/10/17 01:56:29;;;;;;;3.10;1.27;;;;;;;5.22;82.75;99637.25;335010;28;15901;-78
2023/10/17 01:56:47;;;;;;;2.70;1.30;;;;;;;5.22;83.64;99639.84;334585;28;17193;-78
2023/10/17 01:57:06;;;;;;;2.60;1.08;;;;;;;5.22;83.50;99639.84;334701;28;17843;-78
2023/10/17 01:57:18;;;;;;;1.83;1.10;;;;;;;5.20;83.11;99634.69;334462;28;17596;-78
2023/10/17 01:57:30;;;;;;;1.65;1.30;;;;;;;5.22;83.40;99629.53;333743;28;16666;-78
2023/10/17 01:57:43;;;;;;;2.22;1.45;;;;;;;5.22;83.70;99637.25;337395;28;17592;-78
2023/10/17 01:57:58;;;;;;;2.17;1.52;;;;;;;5.20;83.44;99638.09;332364;28;18199;-78
2023/10/17 01:58:15;;;;;;;1.80;1.35;;;;;;;5.20;83.31;99635.53;336219;28;17498;-78
2023/10/17 01:58:29;;;;;;;2.13;1.17;;;;;;;5.22;83.63;99630.38;335766;28;17636;-78
2023/10/17 01:58:46;;;;;;;2.08;1.10;;;;;;;5.23;83.69;99631.22;336992;28;17832;-78
2023/10/17 01:59:13;;;;;;;2.30;1.50;;;;;;;5.20;83.16;99638.09;331955;28;17640;-78
2023/10/17 01:59:27;;;;;;;1.98;1.40;;;;;;;5.20;82.85;99632.94;336468;28;17724;-78
2023/10/17 01:59:39;;;;;;;2.05;1.27;;;;;;;5.22;82.82;99626.94;339472;28;13519;-78
2023/10/17 01:59:51;;;;;;;2.17;1.10;;;;;;;5.23;82.79;99636.38;336592;28;19209;-78
2023/10/17 02:00:23;;;;;;;2.13;1.17;;;;;;;5.23;83.38;99636.38;338368;28;5498;-78
2023/10/17 02:00:38;;;;;;;1.95;1.20;;;;;;;5.24;83.48;99638.09;335355;28;17136;-78
2023/10/17 02:00:54;;;;;;;2.45;1.45;;;;;;;5.24;82.82;99627.78;335732;28;19053;-78
2023/10/17 02:01:11;;;;;;;2.05;1.42;;;;;;;5.24;82.78;99632.94;336475;28;17621;-78
2023/10/17 02:01:29;;;;;;;1.73;1.17;;;;;;;5.24;83.18;99635.50;334465;28;17741;-78
2023/10/17 02:01:42;;;;;;;1.80;1.33;;;;;;;5.22;82.82;99625.22;337276;28;18641;-78
2023/10/17 02:01:59;;;;;;;1.80;1.30;;;;;;;5.24;83.05;99640.66;339775;28;4625;-78
2023/10/17 02:02:12;;;;;;;1.98;1.23;;;;;;;5.20;82.81;99635.53;334189;28;17856;-78
2023/10/17 02:02:24;;;;;;;2.08;1.33;;;;;;;5.23;83.40;99631.22;336220;28;18277;-78
2023/10/17 02:02:37;;;;;;;2.30;1.38;;;;;;;5.22;83.37;99634.69;336326;28;13472;-78
2023/10/17 02:02:49;;;;;;;2.13;1.30;;;;;;;5.18;82.91;99634.69;338014;28;4862;-78
2023/10/17 02:03:03;;;;;;;2.00;1.25;;;;;;;5.15;82.99;99629.59;337159;28;4701;-78
2023/10/17 02:03:16;;;;;;;2.38;1.20;;;;;;;5.14;83.73;99633.03;332531;28;18074;-78
2023/10/17 02:03:30;;;;;;;2.28;1.20;;;;;;;5.16;83.38;99633.88;330677;28;17973;-78
2023/10/17 02:03:42;;;;;;;2.35;1.17;;;;;;;5.14;83.51;99637.34;336010;28;10446;-78
2023/10/17 02:04:03;;;;;;;3.20;1.27;;;;;;;5.16;83.27;99631.28;337534;28;4656;-78
2023/10/17 02:04:18;;;;;;;2.17;1.50;;;;;;;5.16;84.13;99635.59;335990;28;16810;-78
2023/10/17 02:04:34;;;;;;;2.22;1.42;;;;;;;5.15;83.33;99634.75;335849;28;18091;-78
2023/10/17 02:04:49;;;;;;;2.42;1.25;;;;;;;5.17;83.51;99634.72;339222;28;17278;-78
2023/10/17 02:05:02;;;;;;;2.50;1.50;;;;;;;5.18;84.13;99639.84;332428;28;17804;-78
2023/10/17 02:05:15;;;;;;;2.50;1.55;;;;;;;5.19;83.10;99636.41;337467;28;18131;-78
2023/10/17 02:05:28;;;;;;;1.90;1.10;;;;;;;5.23;83.02;99633.78;337429;28;4634;-78
2023/10/17 02:05:40;;;;;;;1.98;1.17;;;;;;;5.23;83.26;99636.38;338465;28;17357;-78
2023/10/17 02:05:52;;;;;;;2.00;1.30;;;;;;;5.25;83.76;99634.63;339732;28;4616;-78
2023/10/17 02:06:13;;;;;;;1.73;1.15;;;;;;;5.25;83.17;99634.63;337042;28;18396;-78
2023/10/17 02:06:25;;;;;;;1.75;1.20;;;;;;;5.25;83.41;99637.19;331674;28;17276;-78
2023/10/17 02:06:38;;;;;;;3.83;1.50;;;;;;;5.24;83.66;99632.94;339632;28;5581;-78
2023/10/17 02:06:50;;;;;;;4.53;1.73;;;;;;;5.24;83.47;99638.09;336336;28;18149;-78
2023/10/17 02:07:03;;;;;;;4.97;1.70;;;;;;;5.23;82.80;99636.38;339905;28;4727;-78
2023/10/17 02:07:15;;;;;;;2.78;1.40;;;;;;;5.25;82.83;99634.63;333255;28;16658;-78
2023/10/17 02:07:28;;;;;;;2.67;1.50;;;;;;;5.25;82.93;99635.50;337948;28;6014;-78
2023/10/17 02:07:40;;;;;;;2.45;1.40;;;;;;;5.26;83.34;99636.34;339333;28;17375;-78
2023/10/17 02:07:54;;;;;;;2.35;1.17;;;;;;;5.25;82.98;99634.63;340108;28;4560;-78
2023/10/17 02:08:06;;;;;;;2.53;1.40;;;;;;;5.25;83.17;99630.34;336667;28;18984;-78
2023/10/17 02:08:21;;;;;;;2.53;1.65;;;;;;;5.26;82.79;99636.34;335768;28;10120;-78
2023/10/17 02:08:36;;;;;;;2.15;1.55;;;;;;;5.27;83.41;99632.88;335916;28;5250;-78
2023/10/17 02:08:48;;;;;;;3.42;1.60;;;;;;;5.25;83.22;99634.63;336561;28;4697;-78
2023/10/17 02:09:00;;;;;;;3.20;1.48;;;;;;;5.28;82.97;99637.19;333775;28;17907;-78
2023/10/17 02:09:55;;;;;;;1.55;1.10;;;;;;;5.30;82.54;99638.03;336101;28;17766;-78
2023/10/17 02:10:08;;;;;;;3.05;1.40;;;;;;;5.31;82.48;99634.56;338982;28;5980;-78
2023/10/17 02:10:21;;;;;;;3.65;1.58;;;;;;;5.31;82.87;99635.44;335370;28;18000;-78
2023/10/17 02:10:33;;;;;;;3.20;1.45;;;;;;;5.31;83.25;99634.56;337529;28;5466;-78
2023/10/17 02:10:47;;;;;;;3.17;1.50;;;;;;;5.32;82.59;99631.13;335143;28;18010;-78
2023/10/17 02:11:01;;;;;;;2.92;1.38;;;;;;;5.33;83.24;99637.97;336999;28;5277;-78
2023/10/17 02:11:23;;;;;;;2.97;1.42;;;;;;;5.30;82.06;99644.03;339828;28;4555;-78
2023/10/17 02:11:43;;;;;;;3.45;1.48;;;;;;;5.29;82.48;99641.44;336389;28;17653;-78
2023/10/17 02:11:55;;;;;;;2.25;1.38;;;;;;;5.28;83.16;99640.59;338176;28;19064;-78
2023/10/17 02:12:08;;;;;;;1.88;1.35;;;;;;;5.29;82.19;99636.28;339840;28;4646;-78
2023/10/17 02:12:21;;;;;;;1.55;1.30;;;;;;;5.27;82.65;99638.91;336995;28;18074;-78
2023/10/17 02:12:33;;;;;;;2.03;1.65;;;;;;;5.27;82.65;99640.63;339932;28;5190;-78
2023/10/17 02:12:47;;;;;;;2.25;1.80;;;;;;;5.28;82.94;99638.03;336512;28;18330;-78
2023/10/17 02:13:00;;;;;;;2.05;1.48;;;;;;;5.27;82.84;99632.88;337066;28;4577;-78
2023/10/17 02:13:12;;;;;;;2.00;1.15;;;;;;;5.27;83.11;99632.88;336511;28;18278;-78
2023/10/17 02:13:24;;;;;;;1.85;1.13;;;;;;;5.27;82.76;99638.03;338686;28;5163;-78
2023/10/17 02:13:36;;;;;;;1.73;1.10;;;;;;;5.28;83.14;99637.19;332739;28;18999;-78
2023/10/17 02:13:48;;;;;;;2.05;1.30;;;;;;;5.26;82.68;99636.34;339380;28;4771;-78
2023/10/17 02:14:01;;;;;;;3.53;1.40;;;;;;;5.28;82.79;99637.19;334271;28;14992;-78
2023/10/17 02:14:13;;;;;;;5.07;1.65;;;;;;;5.29;83.10;99636.28;338937;28;5284;-78
2023/10/17 02:14:25;;;;;;;3.83;1.60;;;;;;;5.30;83.01;99632.88;335758;28;16378;-78
2023/10/17 02:14:41;;;;;;;2.25;1.45;;;;;;;5.33;82.90;99632.81;339065;28;4525;-78
2023/10/17 02:14:53;;;;;;;1.92;1.60;;;;;;;5.31;82.71;99639.72;335052;28;17821;-78
2023/10/17 02:15:07;;;;;;;2.28;1.70;;;;;;;5.32;82.75;99636.28;335596;28;13808;-78
2023/10/17 02:15:20;;;;;;;2.53;1.60;;;;;;;5.31;83.02;99637.13;336828;28;17199;-78
2023/10/17 02:15:34;;;;;;;2.50;1.67;;;;;;;5.29;83.17;99634.59;334883;28;17941;-78
2023/10/17 02:15:50;;;;;;;3.10;1.70;;;;;;;5.22;83.13;99634.69;335321;28;18881;-78
2023/10/17 02:16:02;;;;;;;3.35;1.70;;;;;;;5.20;83.58;99638.09;334475;28;18902;-79
2023/10/17 02:16:15;;;;;;;3.95;1.80;;;;;;;5.22;83.13;99639.84;337571;28;4683;-78
2023/10/17 02:16:28;;;;;;;3.10;1.67;;;;;;;5.19;83.07;99640.69;330283;28;18168;-78
2023/10/17 02:16:40;;;;;;;1.95;1.30;;;;;;;5.18;83.17;99639.84;334589;28;11627;-78
2023/10/17 02:16:55;;;;;;;2.78;1.50;;;;;;;5.19;82.97;99641.56;337088;28;5254;-78
2023/10/17 02:17:09;;;;;;;2.63;1.40;;;;;;;5.19;82.92;99636.41;334756;28;16435;-78
2023/10/17 02:17:21;;;;;;;1.58;1.10;;;;;;;5.19;83.69;99636.41;336561;28;17837;-78
2023/10/17 02:17:35;;;;;;;2.30;1.20;;;;;;;5.20;83.52;99632.13;338662;28;4634;-78
2023/10/17 02:17:48;;;;;;;2.72;1.50;;;;;;;5.20;83.47;99638.09;335686;28;18123;-78
2023/10/17 02:18:06;;;;;;;2.60;1.60;;;;;;;5.20;83.40;99635.53;337686;28;5527;-78
2023/10/17 02:18:18;;;;;;;2.42;1.40;;;;;;;5.21;83.44;99628.66;334534;28;17884;-78
2023/10/17 02:18:30;;;;;;;2.38;1.40;;;;;;;5.23;83.82;99633.78;338225;28;4690;-78
2023/10/17 02:18:44;;;;;;;1.90;1.30;;;;;;;5.23;84.00;99631.22;335775;28;12490;-78
2023/10/17 02:18:58;;;;;;;1.83;1.20;;;;;;;5.23;83.64;99632.06;334806;28;14930;-78
2023/10/17 02:19:10;;;;;;;1.75;1.10;;;;;;;5.24;83.48;99632.94;339423;28;4628;-78
2023/10/17 02:19:25;;;;;;;1.75;1.20;;;;;;;5.24;83.02;99630.34;330774;28;14745;-78